Time,TemperatureF,DewpointF,PressureIn,WindDirection,WindDirectionDegrees,WindSpeedMPH,WindSpeedGustMPH,Humidity,HourlyPrecipIn,Conditions,Clouds,dailyrainin,SoftwareType,DateUTC
2013-05-15 00:02:00,64.2,61.5,29.98,WSW,244,0.0,0.0,91,0.03,,,0.13,meteohub,2013-05-15 05:02:00,
2013-05-15 00:07:00,64.2,61.5,29.98,WSW,244,0.0,0.0,91,0.03,,,0.01,meteohub,2013-05-15 05:07:00,
2013-05-15 00:12:00,64.2,61.5,29.98,WSW,244,0.0,0.0,91,0.03,,,0.01,meteohub,2013-05-15 05:12:00,
2013-05-15 00:17:00,64.2,61.9,29.98,WSW,244,0.0,0.0,92,0.03,,,0.03,meteohub,2013-05-15 05:17:00,
2013-05-15 00:22:00,64.2,61.9,29.99,WSW,244,0.0,0.0,92,0.05,,,0.03,meteohub,2013-05-15 05:22:00,
2013-05-15 00:27:00,64.2,61.9,29.99,SW,235,0.0,0.0,92,0.05,,,0.05,meteohub,2013-05-15 05:27:00,
2013-05-15 00:32:00,64.2,61.9,29.99,SW,219,0.0,8.0,92,0.07,,,0.05,meteohub,2013-05-15 05:32:00,
2013-05-15 00:37:00,64.0,61.3,29.99,SW,220,1.0,8.0,91,0.07,,,0.05,meteohub,2013-05-15 05:37:00,
2013-05-15 00:42:00,64.0,61.3,29.99,SW,227,0.0,8.0,91,0.07,,,0.08,meteohub,2013-05-15 05:42:00,
2013-05-15 00:47:00,63.9,61.2,30.00,WSW,251,4.0,8.0,91,0.10,,,0.08,meteohub,2013-05-15 05:47:00,
2013-05-15 00:52:00,63.9,61.2,30.00,WSW,239,0.0,12.0,91,0.10,,,0.08,meteohub,2013-05-15 05:52:00,
2013-05-15 00:57:00,63.5,60.8,29.99,SW,221,0.0,12.0,91,0.18,,,0.18,meteohub,2013-05-15 05:57:00,
2013-05-15 01:02:00,63.1,60.4,29.99,SW,221,0.0,8.0,91,0.18,,,0.19,meteohub,2013-05-15 06:02:00,
2013-05-15 01:07:00,63.1,60.8,29.99,SW,232,0.0,4.0,92,0.19,,,0.19,meteohub,2013-05-15 06:07:00,
2013-05-15 01:12:00,63.1,60.8,29.99,SW,232,0.0,4.0,92,0.19,,,0.23,meteohub,2013-05-15 06:12:00,
2013-05-15 01:17:00,63.0,60.6,29.98,SW,234,0.0,0.0,92,0.21,,,0.23,meteohub,2013-05-15 06:17:00,
2013-05-15 01:22:00,62.8,60.4,29.97,SW,232,0.0,0.0,92,0.21,,,0.25,meteohub,2013-05-15 06:22:00,
2013-05-15 01:27:00,62.8,60.8,29.98,WSW,246,0.0,7.0,93,0.22,,,0.25,meteohub,2013-05-15 06:27:00,
2013-05-15 01:32:00,62.8,60.8,29.99,WSW,238,0.0,7.0,93,0.22,,,0.27,meteohub,2013-05-15 06:32:00,
2013-05-15 01:37:00,62.8,60.8,29.96,WSW,238,0.0,7.0,93,0.21,,,0.27,meteohub,2013-05-15 06:37:00,
2013-05-15 01:42:00,62.8,60.8,29.94,NW,309,0.0,7.0,93,0.21,,,0.28,meteohub,2013-05-15 06:42:00,
2013-05-15 01:48:00,62.8,60.8,29.94,WNW,296,0.0,0.0,93,0.21,,,0.28,meteohub,2013-05-15 06:48:00,
2013-05-15 01:53:00,62.8,61.0,29.96,WNW,296,0.0,0.0,94,0.21,,,0.29,meteohub,2013-05-15 06:53:00,
2013-05-15 01:58:00,62.8,61.0,29.96,WNW,295,0.0,0.0,94,0.12,,,0.29,meteohub,2013-05-15 06:58:00,
2013-05-15 02:03:00,62.8,60.8,29.95,WSW,246,0.0,0.0,93,0.12,,,0.29,meteohub,2013-05-15 07:03:00,
2013-05-15 02:08:00,62.6,60.6,29.95,WSW,245,0.0,0.0,93,0.08,,,0.29,meteohub,2013-05-15 07:08:00,
2013-05-15 02:13:00,62.6,60.6,29.94,WSW,245,0.0,0.0,93,0.08,,,0.29,meteohub,2013-05-15 07:13:00,
2013-05-15 02:18:00,62.6,60.8,29.94,SW,229,0.0,0.0,94,0.06,,,0.29,meteohub,2013-05-15 07:18:00,
2013-05-15 02:23:00,62.4,60.6,29.94,SE,139,0.0,0.0,94,0.06,,,0.29,meteohub,2013-05-15 07:23:00,
2013-05-15 02:28:00,62.4,60.6,29.94,SE,139,0.0,0.0,94,0.03,,,0.29,meteohub,2013-05-15 07:28:00,
2013-05-15 02:33:00,62.4,60.4,29.94,SE,140,0.0,0.0,93,0.03,,,0.29,meteohub,2013-05-15 07:33:00,
2013-05-15 02:38:00,62.4,60.6,29.93,SE,140,0.0,0.0,94,0.02,,,0.29,meteohub,2013-05-15 07:38:00,
2013-05-15 02:43:00,62.2,60.4,29.93,SE,140,0.0,0.0,94,0.02,,,0.29,meteohub,2013-05-15 07:43:00,
2013-05-15 02:48:00,62.2,60.4,29.93,SE,140,0.0,0.0,94,0.00,,,0.29,meteohub,2013-05-15 07:48:00,
2013-05-15 02:53:00,62.2,60.4,29.92,SE,140,0.0,0.0,94,0.00,,,0.29,meteohub,2013-05-15 07:53:00,
2013-05-15 02:58:00,62.2,60.4,29.92,SE,140,0.0,0.0,94,0.00,,,0.29,meteohub,2013-05-15 07:58:00,
2013-05-15 03:03:00,62.2,60.4,29.92,SE,140,0.0,0.0,94,0.00,,,0.29,meteohub,2013-05-15 08:03:00,
2013-05-15 03:08:00,62.2,60.4,29.92,SE,140,0.0,0.0,94,0.00,,,0.29,meteohub,2013-05-15 08:08:00,
2013-05-15 03:13:00,62.2,60.4,29.92,SE,140,0.0,0.0,94,0.00,,,0.29,meteohub,2013-05-15 08:13:00,
2013-05-15 03:18:00,62.4,60.6,29.93,ESE,123,0.0,0.0,94,0.00,,,0.29,meteohub,2013-05-15 08:18:00,
2013-05-15 03:23:00,62.4,60.6,29.93,SE,144,0.0,0.0,94,0.00,,,0.29,meteohub,2013-05-15 08:23:00,
2013-05-15 03:28:00,62.4,60.6,29.93,SE,144,0.0,4.0,94,0.00,,,0.29,meteohub,2013-05-15 08:28:00,
2013-05-15 03:33:00,62.4,60.6,29.93,SSE,160,1.0,4.0,94,0.00,,,0.29,meteohub,2013-05-15 08:33:00,
2013-05-15 03:38:00,62.4,60.6,29.93,SE,146,6.0,6.0,94,0.00,,,0.29,meteohub,2013-05-15 08:38:00,
2013-05-15 03:43:00,62.4,60.6,29.93,ESE,123,0.0,5.0,94,0.00,,,0.29,meteohub,2013-05-15 08:43:00,
2013-05-15 03:48:00,62.4,60.6,29.93,SE,138,0.0,11.0,94,0.00,,,0.29,meteohub,2013-05-15 08:48:00,
2013-05-15 03:53:00,62.2,60.4,29.92,SSE,162,0.0,11.0,94,0.00,,,0.29,meteohub,2013-05-15 08:53:00,
2013-05-15 03:58:00,62.2,60.4,29.91,SE,125,1.0,11.0,94,0.00,,,0.29,meteohub,2013-05-15 08:58:00,
2013-05-15 04:03:00,62.2,60.4,29.91,SSE,155,0.0,11.0,94,0.00,,,0.29,meteohub,2013-05-15 09:03:00,
2013-05-15 04:08:00,62.1,60.3,29.92,SSE,147,0.0,11.0,94,0.00,,,0.29,meteohub,2013-05-15 09:08:00,
2013-05-15 04:13:00,62.1,60.3,29.92,South,173,8.0,11.0,94,0.00,,,0.29,meteohub,2013-05-15 09:13:00,
2013-05-15 04:18:00,61.9,60.1,29.92,SE,144,0.0,11.0,94,0.00,,,0.29,meteohub,2013-05-15 09:18:00,
2013-05-15 04:23:00,61.7,59.9,29.91,SSE,160,0.0,11.0,94,0.00,,,0.29,meteohub,2013-05-15 09:23:00,
2013-05-15 04:28:00,61.5,59.7,29.91,SSE,158,0.0,8.0,94,0.00,,,0.29,meteohub,2013-05-15 09:28:00,
2013-05-15 04:33:00,61.5,59.7,29.91,SSE,159,0.0,8.0,94,0.00,,,0.29,meteohub,2013-05-15 09:33:00,
2013-05-15 04:38:00,61.3,59.5,29.91,South,188,0.0,5.0,94,0.00,,,0.29,meteohub,2013-05-15 09:38:00,
2013-05-15 04:43:00,61.3,59.5,29.90,SSE,167,0.0,5.0,94,0.00,,,0.29,meteohub,2013-05-15 09:43:00,
2013-05-15 04:48:00,61.3,59.5,29.90,SSE,165,0.0,6.0,94,0.00,,,0.29,meteohub,2013-05-15 09:48:00,
2013-05-15 04:53:00,61.3,59.5,29.90,SSE,165,0.0,6.0,94,0.00,,,0.29,meteohub,2013-05-15 09:53:00,
2013-05-15 04:58:00,61.3,59.9,29.90,SSE,165,0.0,0.0,95,0.00,,,0.29,meteohub,2013-05-15 09:58:00,
2013-05-15 05:03:00,61.3,59.5,29.90,SSE,165,0.0,0.0,94,0.00,,,0.29,meteohub,2013-05-15 10:03:00,
2013-05-15 05:08:00,61.3,59.9,29.90,SSE,165,0.0,0.0,95,0.00,,,0.29,meteohub,2013-05-15 10:08:00,
2013-05-15 05:13:00,61.5,60.1,29.89,SSE,159,0.0,0.0,95,0.00,,,0.29,meteohub,2013-05-15 10:13:00,
2013-05-15 05:18:00,61.5,60.1,29.89,SSE,159,0.0,0.0,95,0.00,,,0.29,meteohub,2013-05-15 10:18:00,
2013-05-15 05:23:00,61.5,60.1,29.89,SSE,159,0.0,0.0,95,0.00,,,0.29,meteohub,2013-05-15 10:23:00,
2013-05-15 05:28:00,61.7,60.3,29.89,SSE,159,0.0,0.0,95,0.00,,,0.29,meteohub,2013-05-15 10:28:00,
2013-05-15 05:33:00,61.7,60.3,29.89,SSE,159,0.0,0.0,95,0.00,,,0.29,meteohub,2013-05-15 10:33:00,
2013-05-15 05:38:00,61.7,60.3,29.89,SSE,159,0.0,0.0,95,0.00,,,0.29,meteohub,2013-05-15 10:38:00,
2013-05-15 05:43:00,61.9,60.4,29.89,SSE,159,0.0,0.0,95,0.00,,,0.29,meteohub,2013-05-15 10:43:00,
2013-05-15 05:48:00,61.9,60.1,29.89,SSE,159,0.0,0.0,94,0.00,,,0.29,meteohub,2013-05-15 10:48:00,
2013-05-15 05:53:00,61.9,60.4,29.89,SSE,159,0.0,0.0,95,0.00,,,0.29,meteohub,2013-05-15 10:53:00,
2013-05-15 05:58:00,61.9,60.4,29.89,SSE,159,0.0,0.0,95,0.00,,,0.29,meteohub,2013-05-15 10:58:00,
2013-05-15 06:06:00,61.9,60.4,29.89,SSE,159,0.0,0.0,95,0.00,,,0.29,meteohub,2013-05-15 11:06:00,
2013-05-15 06:12:00,62.1,60.3,29.89,SSE,159,0.0,0.0,94,0.00,,,0.29,meteohub,2013-05-15 11:12:00,
2013-05-15 06:17:00,62.1,60.6,29.89,SSE,159,0.0,0.0,95,0.00,,,0.29,meteohub,2013-05-15 11:17:00,
2013-05-15 06:22:00,62.2,60.8,29.89,South,180,0.0,0.0,95,0.00,,,0.29,meteohub,2013-05-15 11:22:00,
2013-05-15 06:27:00,62.2,60.4,29.89,South,180,0.0,0.0,94,0.00,,,0.29,meteohub,2013-05-15 11:27:00,
2013-05-15 06:32:00,62.4,60.6,29.89,South,180,0.0,5.0,94,0.00,,,0.29,meteohub,2013-05-15 11:32:00,
2013-05-15 06:37:00,62.4,60.6,29.89,South,180,0.0,5.0,94,0.00,,,0.29,meteohub,2013-05-15 11:37:00,
2013-05-15 06:42:00,62.6,60.6,29.89,South,176,0.0,5.0,93,0.00,,,0.29,meteohub,2013-05-15 11:42:00,
2013-05-15 06:47:00,62.6,60.6,29.89,South,187,0.0,5.0,93,0.00,,,0.29,meteohub,2013-05-15 11:47:00,
2013-05-15 06:52:00,62.8,60.8,29.89,SSE,160,0.0,4.0,93,0.00,,,0.29,meteohub,2013-05-15 11:52:00,
2013-05-15 06:57:00,62.8,60.8,29.89,SSE,160,0.0,4.0,93,0.00,,,0.29,meteohub,2013-05-15 11:57:00,
2013-05-15 07:06:00,62.8,60.8,29.89,SSE,149,0.0,4.0,93,0.00,,,0.29,meteohub,2013-05-15 12:06:00,
2013-05-15 07:11:00,62.8,60.8,29.89,SE,145,0.0,4.0,93,0.00,,,0.29,meteohub,2013-05-15 12:11:00,
2013-05-15 07:17:00,62.6,60.3,29.89,SE,136,0.0,7.0,92,0.00,,,0.29,meteohub,2013-05-15 12:17:00,
2013-05-15 07:22:00,62.6,60.3,29.89,SE,134,0.0,7.0,92,0.00,,,0.29,meteohub,2013-05-15 12:22:00,
2013-05-15 07:27:00,62.6,60.3,29.89,SE,136,0.0,7.0,92,0.00,,,0.29,meteohub,2013-05-15 12:27:00,
2013-05-15 07:32:00,62.6,60.3,29.88,SE,131,0.0,7.0,92,0.00,,,0.29,meteohub,2013-05-15 12:32:00,
2013-05-15 07:37:00,62.8,60.4,29.88,SSE,155,0.0,7.0,92,0.00,,,0.29,meteohub,2013-05-15 12:37:00,
2013-05-15 07:42:00,62.8,60.4,29.88,SSE,151,0.0,9.0,92,0.00,,,0.29,meteohub,2013-05-15 12:42:00,
2013-05-15 07:47:00,63.0,60.6,29.88,SE,144,0.0,9.0,92,0.00,,,0.29,meteohub,2013-05-15 12:47:00,
2013-05-15 07:52:00,63.1,60.8,29.89,SE,142,0.0,9.0,92,0.00,,,0.29,meteohub,2013-05-15 12:52:00,
2013-05-15 07:57:00,63.3,61.3,29.89,South,179,0.0,9.0,93,0.00,,,0.29,meteohub,2013-05-15 12:57:00,
2013-05-15 08:02:00,63.7,61.3,29.89,SSE,160,0.0,5.0,92,0.00,,,0.29,meteohub,2013-05-15 13:02:00,
2013-05-15 08:07:00,64.0,61.7,29.89,SSE,151,0.0,5.0,92,0.00,,,0.29,meteohub,2013-05-15 13:07:00,
2013-05-15 08:12:00,64.2,61.5,29.89,SSE,156,2.0,9.0,91,0.00,,,0.29,meteohub,2013-05-15 13:12:00,
2013-05-15 08:17:00,64.4,61.7,29.90,SSE,147,6.0,9.0,91,0.00,,,0.29,meteohub,2013-05-15 13:17:00,
2013-05-15 08:22:00,64.6,61.5,29.89,SE,142,0.0,11.0,90,0.00,,,0.29,meteohub,2013-05-15 13:22:00,
2013-05-15 08:27:00,64.6,61.5,29.90,SSE,157,0.0,11.0,90,0.00,,,0.29,meteohub,2013-05-15 13:27:00,
2013-05-15 08:32:00,64.8,61.7,29.90,SSE,153,0.0,11.0,90,0.00,,,0.29,meteohub,2013-05-15 13:32:00,
2013-05-15 08:37:00,64.9,61.9,29.90,SSE,149,0.0,11.0,90,0.00,,,0.29,meteohub,2013-05-15 13:37:00,
2013-05-15 08:44:00,65.1,62.1,29.90,SE,133,0.0,7.0,90,0.00,,,0.29,meteohub,2013-05-15 13:44:00,
2013-05-15 08:50:00,65.5,62.4,29.90,SSE,167,0.0,7.0,90,0.00,,,0.29,meteohub,2013-05-15 13:50:00,
2013-05-15 08:57:00,66.0,63.0,29.90,South,182,0.0,7.0,90,0.00,,,0.29,meteohub,2013-05-15 13:57:00,
2013-05-15 09:02:00,66.4,63.0,29.89,SE,129,0.0,9.0,89,0.00,,,0.29,meteohub,2013-05-15 14:02:00,
2013-05-15 09:07:00,66.4,62.8,29.89,SE,127,2.0,9.0,88,0.00,,,0.29,meteohub,2013-05-15 14:07:00,
2013-05-15 09:12:00,66.6,62.6,29.89,ESE,115,5.0,9.0,87,0.00,,,0.29,meteohub,2013-05-15 14:12:00,
2013-05-15 09:17:00,66.6,63.0,29.90,SE,141,5.0,13.0,88,0.00,,,0.29,meteohub,2013-05-15 14:17:00,
2013-05-15 09:22:00,66.6,63.0,29.89,SE,124,5.0,13.0,88,0.00,,,0.29,meteohub,2013-05-15 14:22:00,
2013-05-15 09:27:00,66.7,62.8,29.89,ESE,109,4.0,13.0,87,0.00,,,0.29,meteohub,2013-05-15 14:27:00,
2013-05-15 09:32:00,66.7,62.8,29.90,SE,131,0.0,10.0,87,0.00,,,0.29,meteohub,2013-05-15 14:32:00,
2013-05-15 09:37:00,66.7,62.8,29.89,ESE,112,0.0,10.0,87,0.00,,,0.29,meteohub,2013-05-15 14:37:00,
2013-05-15 09:42:00,66.9,63.3,29.89,SE,130,1.0,10.0,88,0.00,,,0.29,meteohub,2013-05-15 14:42:00,
2013-05-15 09:49:00,67.3,63.3,29.89,SSE,150,0.0,10.0,87,0.00,,,0.29,meteohub,2013-05-15 14:49:00,
2013-05-15 09:57:00,67.5,63.5,29.89,ESE,121,0.0,10.0,87,0.00,,,0.29,meteohub,2013-05-15 14:57:00,
2013-05-15 10:02:00,67.5,63.5,29.88,SSE,149,8.0,10.0,87,0.00,,,0.29,meteohub,2013-05-15 15:02:00,
2013-05-15 10:07:00,67.6,63.7,29.88,SE,124,6.0,10.0,87,0.00,,,0.29,meteohub,2013-05-15 15:07:00,
2013-05-15 10:12:00,68.0,64.0,29.88,SE,137,6.0,12.0,87,0.00,,,0.29,meteohub,2013-05-15 15:12:00,
2013-05-15 10:17:00,68.4,64.4,29.88,SE,130,0.0,12.0,87,0.00,,,0.29,meteohub,2013-05-15 15:17:00,
2013-05-15 10:26:00,68.7,64.4,29.88,SSE,153,2.0,14.0,86,0.00,,,0.29,meteohub,2013-05-15 15:26:00,
2013-05-15 10:32:00,69.3,64.6,29.89,SSE,153,4.0,14.0,85,0.00,,,0.29,meteohub,2013-05-15 15:32:00,
2013-05-15 10:37:00,69.3,64.9,29.88,SSE,153,0.0,14.0,86,0.00,,,0.29,meteohub,2013-05-15 15:37:00,
2013-05-15 10:44:00,69.6,65.3,29.87,SE,132,0.0,13.0,86,0.00,,,0.29,meteohub,2013-05-15 15:44:00,
2013-05-15 10:52:00,70.7,65.7,29.87,SSE,154,0.0,12.0,84,0.00,,,0.29,meteohub,2013-05-15 15:52:00,
2013-05-15 10:57:00,71.1,65.7,29.87,SSE,148,0.0,12.0,83,0.00,,,0.29,meteohub,2013-05-15 15:57:00,
2013-05-15 11:02:00,71.8,66.0,29.87,SSE,150,0.0,12.0,82,0.00,,,0.29,meteohub,2013-05-15 16:02:00,
2013-05-15 11:07:00,72.1,66.0,29.86,SSE,168,9.0,12.0,81,0.00,,,0.29,meteohub,2013-05-15 16:07:00,
2013-05-15 11:12:00,72.7,66.6,29.86,South,188,0.0,14.0,81,0.00,,,0.29,meteohub,2013-05-15 16:12:00,
2013-05-15 11:17:00,73.2,66.7,29.86,SSE,156,2.0,14.0,80,0.00,,,0.29,meteohub,2013-05-15 16:17:00,
2013-05-15 11:22:00,73.8,66.4,29.86,SW,226,0.0,14.0,78,0.00,,,0.29,meteohub,2013-05-15 16:22:00,
2013-05-15 11:27:00,74.1,66.0,29.86,SW,217,4.0,14.0,76,0.00,,,0.29,meteohub,2013-05-15 16:27:00,
2013-05-15 11:32:00,74.3,66.2,29.86,SSW,192,6.0,13.0,76,0.00,,,0.29,meteohub,2013-05-15 16:32:00,
2013-05-15 11:37:00,74.8,66.4,29.85,SE,135,4.0,13.0,75,0.00,,,0.29,meteohub,2013-05-15 16:37:00,
2013-05-15 11:41:00,75.0,66.6,29.85,SW,232,0.0,13.0,75,0.00,,,0.29,meteohub,2013-05-15 16:41:00,
2013-05-15 11:42:00,75.2,66.7,29.85,SSW,193,0.0,13.0,75,0.00,,,0.29,meteohub,2013-05-15 16:42:00,
2013-05-15 11:47:00,75.6,66.7,29.84,SW,215,3.0,11.0,74,0.00,,,0.29,meteohub,2013-05-15 16:47:00,
2013-05-15 11:52:00,75.9,66.6,29.84,SW,223,2.0,11.0,73,0.00,,,0.29,meteohub,2013-05-15 16:52:00,
2013-05-15 11:57:00,76.6,66.6,29.84,SW,223,6.0,12.0,71,0.00,,,0.29,meteohub,2013-05-15 16:57:00,
2013-05-15 12:02:00,77.0,66.4,29.84,SW,233,0.0,12.0,70,0.00,,,0.29,meteohub,2013-05-15 17:02:00,
2013-05-15 12:07:00,77.5,66.6,29.83,SSW,198,1.0,14.0,69,0.00,,,0.29,meteohub,2013-05-15 17:07:00,
2013-05-15 12:12:00,77.7,66.4,29.83,SW,221,2.0,14.0,68,0.00,,,0.29,meteohub,2013-05-15 17:12:00,
2013-05-15 12:19:00,78.1,66.7,29.83,South,180,0.0,14.0,68,0.00,,,0.29,meteohub,2013-05-15 17:19:00,
2013-05-15 12:24:00,79.0,66.2,29.82,South,171,2.0,12.0,65,0.00,,,0.29,meteohub,2013-05-15 17:24:00,
2013-05-15 12:31:00,79.3,66.0,29.82,South,182,3.0,13.0,64,0.00,,,0.29,meteohub,2013-05-15 17:31:00,
2013-05-15 12:37:00,80.1,66.4,29.82,SW,227,4.0,13.0,63,0.00,,,0.29,meteohub,2013-05-15 17:37:00,
2013-05-15 12:42:00,80.6,66.4,29.82,South,186,6.0,15.0,62,0.00,,,0.29,meteohub,2013-05-15 17:42:00,
2013-05-15 12:47:00,81.3,66.0,29.82,SW,229,12.0,15.0,60,0.00,,,0.29,meteohub,2013-05-15 17:47:00,
2013-05-15 12:52:00,81.7,66.0,29.82,SSW,192,6.0,16.0,59,0.00,,,0.29,meteohub,2013-05-15 17:52:00,
2013-05-15 12:57:00,81.9,65.7,29.81,SW,234,10.0,16.0,58,0.00,,,0.29,meteohub,2013-05-15 17:57:00,
2013-05-15 13:02:00,81.9,66.2,29.81,SSW,203,3.0,16.0,59,0.00,,,0.29,meteohub,2013-05-15 18:02:00,
2013-05-15 13:07:00,82.0,65.3,29.81,SW,232,12.0,19.0,57,0.00,,,0.29,meteohub,2013-05-15 18:07:00,
2013-05-15 13:12:00,82.8,65.5,29.81,WSW,257,2.0,19.0,56,0.00,,,0.29,meteohub,2013-05-15 18:12:00,
2013-05-15 13:17:00,83.3,66.0,29.80,South,189,4.0,17.0,56,0.00,,,0.29,meteohub,2013-05-15 18:17:00,
2013-05-15 13:22:00,83.7,65.8,29.81,SW,219,6.0,17.0,55,0.00,,,0.29,meteohub,2013-05-15 18:22:00,
2013-05-15 13:27:00,83.5,65.1,29.80,SW,236,13.0,13.0,54,0.00,,,0.29,meteohub,2013-05-15 18:27:00,
2013-05-15 13:32:00,83.7,64.2,29.80,SW,229,4.0,13.0,52,0.00,,,0.29,meteohub,2013-05-15 18:32:00,
2013-05-15 13:37:00,83.8,66.0,29.80,SSW,213,0.0,20.0,55,0.00,,,0.29,meteohub,2013-05-15 18:37:00,
2013-05-15 13:42:00,83.7,64.2,29.80,SSW,211,7.0,20.0,52,0.00,,,0.29,meteohub,2013-05-15 18:42:00,
2013-05-15 13:47:00,83.8,63.9,29.79,SW,229,8.0,20.0,51,0.00,,,0.29,meteohub,2013-05-15 18:47:00,
2013-05-15 13:52:00,83.8,63.9,29.79,SW,229,6.0,20.0,51,0.00,,,0.29,meteohub,2013-05-15 18:52:00,
2013-05-15 13:57:00,84.0,63.9,29.79,SSW,207,13.0,17.0,51,0.00,,,0.29,meteohub,2013-05-15 18:57:00,
2013-05-15 14:02:00,84.0,62.8,29.79,WSW,242,7.0,17.0,49,0.00,,,0.29,meteohub,2013-05-15 19:02:00,
2013-05-15 14:07:00,84.0,63.3,29.78,SW,227,2.0,18.0,50,0.00,,,0.29,meteohub,2013-05-15 19:07:00,
2013-05-15 14:13:00,84.4,63.1,29.78,SSW,204,10.0,18.0,49,0.00,,,0.29,meteohub,2013-05-15 19:13:00,
2013-05-15 14:22:00,85.3,62.8,29.78,WSW,238,6.0,18.0,47,0.00,,,0.29,meteohub,2013-05-15 19:22:00,
2013-05-15 14:29:00,85.5,63.5,29.78,WSW,238,8.0,16.0,48,0.00,,,0.29,meteohub,2013-05-15 19:29:00,
2013-05-15 14:34:00,85.8,62.6,29.77,SW,226,5.0,16.0,46,0.00,,,0.29,meteohub,2013-05-15 19:34:00,
2013-05-15 14:40:00,85.8,62.6,29.77,South,175,7.0,17.0,46,0.00,,,0.29,meteohub,2013-05-15 19:40:00,
2013-05-15 14:47:00,86.5,62.6,29.77,SW,228,7.0,17.0,45,0.00,,,0.29,meteohub,2013-05-15 19:47:00,
2013-05-15 14:52:00,86.7,62.8,29.76,SW,233,5.0,17.0,45,0.00,,,0.29,meteohub,2013-05-15 19:52:00,
2013-05-15 14:57:00,86.5,61.3,29.76,SSW,193,2.0,13.0,43,0.00,,,0.29,meteohub,2013-05-15 19:57:00,
2013-05-15 15:02:00,86.7,62.2,29.76,SSW,203,2.0,13.0,44,0.00,,,0.29,meteohub,2013-05-15 20:02:00,
2013-05-15 15:07:00,86.7,62.2,29.75,WSW,243,5.0,19.0,44,0.00,,,0.29,meteohub,2013-05-15 20:07:00,
2013-05-15 15:12:00,86.9,62.4,29.75,SSW,209,0.0,19.0,44,0.00,,,0.29,meteohub,2013-05-15 20:12:00,
2013-05-15 15:17:00,86.7,61.5,29.75,SW,224,9.0,19.0,43,0.00,,,0.29,meteohub,2013-05-15 20:17:00,
2013-05-15 15:22:00,86.4,61.9,29.74,SW,225,8.0,15.0,44,0.00,,,0.29,meteohub,2013-05-15 20:22:00,
2013-05-15 15:27:00,86.9,60.4,29.74,SW,223,9.0,18.0,41,0.00,,,0.29,meteohub,2013-05-15 20:27:00,
2013-05-15 15:32:00,87.1,60.4,29.74,SW,221,6.0,18.0,41,0.00,,,0.29,meteohub,2013-05-15 20:32:00,
2013-05-15 15:37:00,87.1,60.4,29.74,SW,233,4.0,19.0,41,0.00,,,0.29,meteohub,2013-05-15 20:37:00,
2013-05-15 15:42:00,87.3,61.3,29.73,WSW,242,0.0,19.0,42,0.00,,,0.29,meteohub,2013-05-15 20:42:00,
2013-05-15 15:47:00,88.0,61.3,29.73,SW,231,11.0,18.0,41,0.00,,,0.29,meteohub,2013-05-15 20:47:00,
2013-05-15 15:52:00,88.2,60.8,29.73,SSE,148,8.0,18.0,40,0.00,,,0.29,meteohub,2013-05-15 20:52:00,
2013-05-15 15:58:00,88.3,61.0,29.73,SW,234,7.0,20.0,40,0.00,,,0.29,meteohub,2013-05-15 20:58:00,
2013-05-15 16:03:00,88.9,60.8,29.72,SW,234,2.0,20.0,39,0.00,,,0.29,meteohub,2013-05-15 21:03:00,
2013-05-15 16:10:00,88.9,60.8,29.72,SW,219,5.0,20.0,39,0.00,,,0.29,meteohub,2013-05-15 21:10:00,
2013-05-15 16:17:00,89.6,60.6,29.71,SW,219,5.0,16.0,38,0.00,,,0.29,meteohub,2013-05-15 21:17:00,
2013-05-15 16:22:00,90.1,57.2,29.71,SW,236,18.0,18.0,33,0.00,,,0.29,meteohub,2013-05-15 21:22:00,
2013-05-15 16:27:00,90.0,56.1,29.71,WSW,237,6.0,15.0,32,0.00,,,0.29,meteohub,2013-05-15 21:27:00,
2013-05-15 16:32:00,90.1,53.6,29.71,SW,234,5.0,15.0,29,0.00,,,0.29,meteohub,2013-05-15 21:32:00,
2013-05-15 16:38:00,90.1,53.6,29.71,SW,232,7.0,15.0,29,0.00,,,0.29,meteohub,2013-05-15 21:38:00,
2013-05-15 16:45:00,90.3,54.7,29.70,WSW,243,5.0,29.0,30,0.00,,,0.29,meteohub,2013-05-15 21:45:00,
2013-05-15 16:52:00,90.1,53.6,29.70,SW,221,11.0,21.0,29,0.00,,,0.29,meteohub,2013-05-15 21:52:00,
2013-05-15 17:00:00,90.3,54.7,29.70,SSW,213,7.0,21.0,30,0.00,,,0.29,meteohub,2013-05-15 22:00:00,
2013-05-15 17:05:00,90.5,54.0,29.69,SW,216,3.0,21.0,29,0.00,,,0.29,meteohub,2013-05-15 22:05:00,
2013-05-15 17:12:00,90.5,52.9,29.69,SW,220,3.0,19.0,28,0.00,,,0.29,meteohub,2013-05-15 22:12:00,
2013-05-15 17:17:00,90.7,54.1,29.68,SW,221,7.0,19.0,29,0.00,,,0.29,meteohub,2013-05-15 22:17:00,
2013-05-15 17:24:00,90.9,53.2,29.68,WSW,238,0.0,19.0,28,0.00,,,0.29,meteohub,2013-05-15 22:24:00,
2013-05-15 17:30:00,91.0,52.3,29.68,SSW,198,4.0,17.0,27,0.00,,,0.29,meteohub,2013-05-15 22:30:00,
2013-05-15 17:37:00,91.2,51.6,29.67,SW,225,7.0,17.0,26,0.00,,,0.29,meteohub,2013-05-15 22:37:00,
2013-05-15 17:42:00,91.2,51.6,29.67,SW,225,2.0,17.0,26,0.00,,,0.29,meteohub,2013-05-15 22:42:00,
2013-05-15 17:47:00,91.2,51.6,29.67,SW,225,15.0,18.0,26,0.00,,,0.29,meteohub,2013-05-15 22:47:00,
2013-05-15 17:54:00,91.2,51.6,29.66,SW,224,3.0,18.0,26,0.00,,,0.29,meteohub,2013-05-15 22:54:00,
2013-05-15 17:59:00,91.6,52.9,29.66,SSE,168,6.0,18.0,27,0.00,,,0.29,meteohub,2013-05-15 22:59:00,
2013-05-15 18:06:00,91.6,53.8,29.66,SW,221,3.0,18.0,28,0.00,,,0.29,meteohub,2013-05-15 23:06:00,
2013-05-15 18:12:00,91.8,52.0,29.65,WSW,240,0.0,11.0,26,0.00,,,0.29,meteohub,2013-05-15 23:12:00,
2013-05-15 18:17:00,91.8,54.0,29.65,WSW,246,4.0,15.0,28,0.00,,,0.29,meteohub,2013-05-15 23:17:00,
2013-05-15 18:22:00,91.9,52.2,29.65,SW,234,6.0,15.0,26,0.00,,,0.29,meteohub,2013-05-15 23:22:00,
2013-05-15 18:27:00,91.9,53.2,29.65,SW,229,0.0,15.0,27,0.00,,,0.29,meteohub,2013-05-15 23:27:00,
2013-05-15 18:32:00,91.9,54.1,29.65,SW,220,0.0,11.0,28,0.00,,,0.29,meteohub,2013-05-15 23:32:00,
2013-05-15 18:37:00,91.8,55.0,29.64,WSW,242,0.0,11.0,29,0.00,,,0.29,meteohub,2013-05-15 23:37:00,
2013-05-15 18:42:00,91.6,53.8,29.64,SW,224,0.0,15.0,28,0.00,,,0.29,meteohub,2013-05-15 23:42:00,
2013-05-15 18:47:00,91.4,52.7,29.64,SW,225,4.0,15.0,27,0.00,,,0.29,meteohub,2013-05-15 23:47:00,
2013-05-15 18:52:00,91.0,52.3,29.63,SW,236,4.0,18.0,27,0.00,,,0.29,meteohub,2013-05-15 23:52:00,
2013-05-15 18:57:00,90.7,52.2,29.64,SSW,205,0.0,18.0,27,0.00,,,0.29,meteohub,2013-05-15 23:57:00,
2013-05-15 19:02:00,90.5,52.9,29.63,West,264,2.0,18.0,28,0.00,,,0.29,meteohub,2013-05-16 00:02:00,
2013-05-15 19:07:00,90.3,52.9,29.63,SSW,211,12.0,13.0,28,0.00,,,0.29,meteohub,2013-05-16 00:07:00,
2013-05-15 19:12:00,90.0,52.5,29.63,SW,215,1.0,13.0,28,0.00,,,0.29,meteohub,2013-05-16 00:12:00,
2013-05-15 19:17:00,89.8,53.2,29.63,SSW,200,1.0,15.0,29,0.00,,,0.29,meteohub,2013-05-16 00:17:00,
2013-05-15 19:22:00,89.2,52.9,29.64,WSW,238,0.0,15.0,29,0.00,,,0.29,meteohub,2013-05-16 00:22:00,
2013-05-15 19:27:00,88.9,52.5,29.64,SSW,206,0.0,8.0,29,0.00,,,0.29,meteohub,2013-05-16 00:27:00,
2013-05-15 19:32:00,88.5,53.1,29.64,SSW,194,3.0,8.0,30,0.00,,,0.29,meteohub,2013-05-16 00:32:00,
2013-05-15 19:37:00,88.2,53.8,29.64,WSW,257,0.0,7.0,31,0.00,,,0.29,meteohub,2013-05-16 00:37:00,
2013-05-15 19:44:00,87.6,54.1,29.64,SW,218,0.0,7.0,32,0.00,,,0.29,meteohub,2013-05-16 00:44:00,
2013-05-15 19:51:00,87.1,54.5,29.64,SSW,212,0.0,6.0,33,0.00,,,0.29,meteohub,2013-05-16 00:51:00,
2013-05-15 19:58:00,86.4,55.4,29.64,SSW,213,0.0,5.0,35,0.00,,,0.29,meteohub,2013-05-16 00:58:00,
2013-05-15 20:07:00,86.0,55.2,29.64,SSW,213,0.0,5.0,35,0.00,,,0.29,meteohub,2013-05-16 01:07:00,
2013-05-15 20:12:00,85.1,52.0,29.67,North,355,0.0,0.0,32,0.00,,,0.29,meteohub,2013-05-16 01:12:00,
2013-05-15 20:17:00,83.8,51.6,29.67,NNE,14,4.0,13.0,33,0.00,,,0.29,meteohub,2013-05-16 01:17:00,
2013-05-15 20:22:00,82.6,50.5,29.67,NNW,330,9.0,13.0,33,0.00,,,0.29,meteohub,2013-05-16 01:22:00,
2013-05-15 20:27:00,81.7,50.5,29.71,NW,314,22.0,22.0,34,0.00,,,0.29,meteohub,2013-05-16 01:27:00,
2013-05-15 20:32:00,79.0,53.2,29.72,NNW,332,28.0,28.0,41,0.00,,,0.29,meteohub,2013-05-16 01:32:00,
2013-05-15 20:37:00,77.5,52.0,29.70,WSW,237,3.0,30.0,41,0.00,,,0.29,meteohub,2013-05-16 01:37:00,
2013-05-15 20:42:00,78.3,53.2,29.72,West,273,16.0,30.0,42,0.00,,,0.29,meteohub,2013-05-16 01:42:00,
2013-05-15 20:47:00,77.2,52.9,29.72,NNW,329,10.0,30.0,43,0.00,,,0.29,meteohub,2013-05-16 01:47:00,
2013-05-15 20:54:00,77.0,53.4,29.73,NW,323,11.0,30.0,44,0.00,,,0.29,meteohub,2013-05-16 01:54:00,
2013-05-15 21:00:00,75.0,55.6,29.73,NW,315,7.0,29.0,51,0.00,,,0.29,meteohub,2013-05-16 02:00:00,
2013-05-15 21:07:00,71.8,59.0,29.72,NW,317,9.0,29.0,64,0.00,,,0.29,meteohub,2013-05-16 02:07:00,
2013-05-15 21:15:00,70.5,58.1,29.72,WNW,296,9.0,29.0,65,0.00,,,0.29,meteohub,2013-05-16 02:15:00,
2013-05-15 21:22:00,70.3,59.4,29.71,NNW,343,0.0,23.0,68,0.00,,,0.29,meteohub,2013-05-16 02:22:00,
2013-05-15 21:27:00,70.3,59.7,29.71,NNE,19,0.0,17.0,69,0.00,,,0.29,meteohub,2013-05-16 02:27:00,
2013-05-15 21:32:00,70.3,59.4,29.71,NNE,24,0.0,17.0,68,0.00,,,0.29,meteohub,2013-05-16 02:32:00,
2013-05-15 21:37:00,70.3,59.4,29.73,NW,315,0.0,13.0,68,0.00,,,0.29,meteohub,2013-05-16 02:37:00,
2013-05-15 21:42:00,70.7,59.5,29.75,NW,304,2.0,13.0,68,0.00,,,0.29,meteohub,2013-05-16 02:42:00,
2013-05-15 21:47:00,70.5,59.9,29.75,WNW,298,6.0,18.0,69,0.00,,,0.29,meteohub,2013-05-16 02:47:00,
2013-05-15 21:52:00,70.5,59.0,29.74,NNW,345,8.0,18.0,67,0.00,,,0.29,meteohub,2013-05-16 02:52:00,
2013-05-15 21:57:00,70.7,59.2,29.71,NE,53,6.0,18.0,67,0.00,,,0.29,meteohub,2013-05-16 02:57:00,
2013-05-15 22:02:00,70.5,59.9,29.72,NNW,333,5.0,18.0,69,0.00,,,0.29,meteohub,2013-05-16 03:02:00,
2013-05-15 22:07:00,70.5,59.9,29.75,NW,319,1.0,15.0,69,0.00,,,0.29,meteohub,2013-05-16 03:07:00,
2013-05-15 22:15:00,70.9,59.7,29.74,NNW,328,4.0,15.0,68,0.00,,,0.29,meteohub,2013-05-16 03:15:00,
2013-05-15 22:21:00,70.9,59.7,29.74,NNW,343,8.0,15.0,68,0.00,,,0.29,meteohub,2013-05-16 03:21:00,
2013-05-15 22:27:00,70.9,60.6,29.72,NNE,27,0.0,8.0,70,0.00,,,0.29,meteohub,2013-05-16 03:27:00,
2013-05-15 22:32:00,70.9,60.6,29.73,NNW,348,0.0,8.0,70,0.00,,,0.29,meteohub,2013-05-16 03:32:00,
2013-05-15 22:37:00,70.9,60.3,29.72,NNW,348,0.0,0.0,69,0.00,,,0.29,meteohub,2013-05-16 03:37:00,
2013-05-15 22:42:00,71.1,59.9,29.71,NNW,348,0.0,0.0,68,0.00,,,0.29,meteohub,2013-05-16 03:42:00,
2013-05-15 22:47:00,71.2,60.1,29.71,NNW,348,0.0,0.0,68,0.00,,,0.29,meteohub,2013-05-16 03:47:00,
2013-05-15 22:54:00,71.2,60.1,29.71,NNW,348,0.0,0.0,68,0.00,,,0.29,meteohub,2013-05-16 03:54:00,
2013-05-15 23:02:00,71.6,60.8,29.70,NNW,344,0.0,0.0,69,0.00,,,0.29,meteohub,2013-05-16 04:02:00,
2013-05-15 23:03:00,71.6,60.4,29.70,NNW,344,0.0,0.0,68,0.00,,,0.29,meteohub,2013-05-16 04:03:00,
2013-05-15 23:08:00,71.8,61.0,29.70,NNW,334,0.0,0.0,69,0.00,,,0.29,meteohub,2013-05-16 04:08:00,
2013-05-15 23:13:00,71.8,61.5,29.69,WSW,258,0.0,0.0,70,0.00,,,0.29,meteohub,2013-05-16 04:13:00,
2013-05-15 23:18:00,71.4,61.5,29.68,WSW,258,0.0,0.0,71,0.00,,,0.29,meteohub,2013-05-16 04:18:00,
2013-05-15 23:23:00,71.1,61.5,29.68,WSW,238,0.0,0.0,72,0.00,,,0.29,meteohub,2013-05-16 04:23:00,
2013-05-15 23:28:00,70.3,61.7,29.65,SSW,210,4.0,6.0,74,0.00,,,0.29,meteohub,2013-05-16 04:28:00,
2013-05-15 23:33:00,70.0,61.3,29.64,SW,232,4.0,6.0,74,0.00,,,0.29,meteohub,2013-05-16 04:33:00,
2013-05-15 23:38:00,69.6,60.6,29.63,SSW,198,2.0,6.0,73,0.00,,,0.29,meteohub,2013-05-16 04:38:00,
2013-05-15 23:43:00,69.6,60.3,29.63,SW,219,0.0,6.0,72,0.00,,,0.29,meteohub,2013-05-16 04:43:00,
2013-05-15 23:48:00,69.6,60.3,29.63,SW,218,0.0,6.0,72,0.00,,,0.29,meteohub,2013-05-16 04:48:00,
2013-05-15 23:53:00,69.6,59.7,29.63,SW,224,0.0,6.0,71,0.00,,,0.29,meteohub,2013-05-16 04:53:00,
2013-05-15 23:58:00,69.6,59.7,29.63,SW,223,0.0,7.0,71,0.00,,,0.29,meteohub,2013-05-16 04:58:00,